createdAt,value
2024-02-19T00:02:34.840Z,43.5
2024-02-19T00:07:35.570Z,43.4
2024-02-19T00:12:36.416Z,43.4
2024-02-19T00:17:37.232Z,43.4
2024-02-19T00:22:37.950Z,43.3
2024-02-19T00:27:38.552Z,43.3
2024-02-19T00:32:39.367Z,43.2
2024-02-19T00:37:40.111Z,43.1
2024-02-19T00:42:40.678Z,43.1
2024-02-19T00:47:41.278Z,43.1
2024-02-19T00:52:41.932Z,43
2024-02-19T00:57:42.597Z,43
2024-02-19T01:02:43.253Z,42.9
2024-02-19T01:07:43.843Z,42.9
2024-02-19T01:12:44.417Z,42.9
2024-02-19T01:17:45.079Z,42.8
2024-02-19T01:22:45.892Z,42.7
2024-02-19T01:27:46.466Z,42.7
2024-02-19T01:32:47.064Z,42.7
2024-02-19T01:37:47.636Z,42.6
2024-02-19T01:42:48.264Z,42.6
2024-02-19T01:47:48.993Z,42.6
2024-02-19T01:52:49.593Z,42.5
2024-02-19T01:57:50.155Z,42.5
2024-02-19T02:02:50.771Z,42.4
2024-02-19T02:07:51.377Z,42.4
2024-02-19T02:12:51.979Z,42.4
2024-02-19T02:17:52.628Z,42.3
2024-02-19T02:22:53.290Z,42.2
2024-02-19T02:27:53.881Z,42.2
2024-02-19T02:32:54.542Z,42.2
2024-02-19T02:37:55.200Z,42.1
2024-02-19T02:42:55.820Z,42.1
2024-02-19T02:47:56.507Z,42.1
2024-02-19T02:52:57.131Z,42
2024-02-19T02:57:57.691Z,42
2024-02-19T03:02:58.275Z,41.9
2024-02-19T03:07:58.809Z,41.9
2024-02-19T03:12:59.518Z,41.9
2024-02-19T03:18:00.128Z,41.8
2024-02-19T03:23:00.687Z,41.8
2024-02-19T03:28:01.217Z,41.7
2024-02-19T03:33:01.982Z,41.7
2024-02-19T03:38:02.865Z,41.7
2024-02-19T03:43:03.593Z,41.6
2024-02-19T03:48:04.221Z,41.6
2024-02-19T03:53:05.024Z,41.6
2024-02-19T03:58:05.535Z,41.5
2024-02-19T04:03:06.104Z,41.5
2024-02-19T04:08:09.585Z,41.4
2024-02-19T04:13:10.518Z,41.4
2024-02-19T04:18:11.068Z,41.4
2024-02-19T04:23:11.747Z,41.3
2024-02-19T04:28:13.220Z,41.2
2024-02-19T04:38:20.049Z,41.2
2024-02-19T04:43:20.582Z,41.2
2024-02-19T04:48:21.187Z,41.1
2024-02-19T04:53:21.633Z,41.1
2024-02-19T04:58:22.116Z,41.1
2024-02-19T05:03:22.623Z,41
2024-02-19T05:08:23.110Z,41
2024-02-19T05:13:24.095Z,40.9
2024-02-19T05:18:24.744Z,40.9
2024-02-19T05:23:25.491Z,40.9
2024-02-19T05:28:26.057Z,40.8
2024-02-19T05:33:26.633Z,40.8
2024-02-19T05:38:27.346Z,40.8
2024-02-19T05:43:28.000Z,40.8
2024-02-19T05:48:28.672Z,40.7
2024-02-19T05:53:29.281Z,40.7
2024-02-19T05:58:29.839Z,40.6
2024-02-19T06:03:30.368Z,40.6
2024-02-19T06:08:30.877Z,40.6
2024-02-19T06:13:31.460Z,40.5
2024-02-19T06:18:32.058Z,40.5
2024-02-19T06:23:32.884Z,40.4
2024-02-19T06:28:33.410Z,40.4
2024-02-19T06:33:34.035Z,40.4
2024-02-19T06:38:34.724Z,40.3
2024-02-19T06:43:35.463Z,40.3
2024-02-19T06:48:36.150Z,40.2
2024-02-19T06:53:36.709Z,40.2
2024-02-19T06:58:37.277Z,40.2
2024-02-19T07:03:38.153Z,40.2
2024-02-19T07:08:38.734Z,40.1
2024-02-19T07:13:39.400Z,40.1
2024-02-19T07:18:40.033Z,40.1
2024-02-19T07:23:40.739Z,40.1
2024-02-19T07:28:42.206Z,40
2024-02-19T07:33:42.961Z,39.9
2024-02-19T07:38:43.561Z,39.9
2024-02-19T07:43:44.005Z,39.9
2024-02-19T07:48:44.694Z,39.9
2024-02-19T07:53:45.390Z,39.8
2024-02-19T07:58:45.951Z,39.8
2024-02-19T08:03:46.568Z,39.7
2024-02-19T08:08:47.154Z,39.7
2024-02-19T08:13:47.809Z,39.7
2024-02-19T08:18:48.484Z,39.7
2024-02-19T08:23:49.336Z,39.6
2024-02-19T08:28:50.006Z,39.6
2024-02-19T08:33:50.565Z,39.6
2024-02-19T08:38:51.136Z,39.6
2024-02-19T08:43:51.714Z,39.5
2024-02-19T08:48:52.349Z,39.5
2024-02-19T08:53:56.504Z,39.4
2024-02-19T08:59:00.210Z,39.4
2024-02-19T09:04:00.799Z,39.4
2024-02-19T09:09:01.449Z,39.3
2024-02-19T09:14:01.988Z,39.3
2024-02-19T09:19:02.526Z,39.2
2024-02-19T09:24:03.124Z,39.2
2024-02-19T09:29:03.597Z,39.2
2024-02-19T09:34:04.074Z,39.2
2024-02-19T09:39:04.775Z,39.1
2024-02-19T09:44:05.262Z,39.1
2024-02-19T09:49:05.834Z,39.1
2024-02-19T09:54:06.374Z,39.1
2024-02-19T09:59:06.976Z,39
2024-02-19T10:04:08.618Z,39
2024-02-19T10:09:10.157Z,39
2024-02-19T10:14:10.626Z,38.9
2024-02-19T10:19:11.303Z,38.9
2024-02-19T10:24:11.950Z,38.9
2024-02-19T10:29:12.523Z,38.9
2024-02-19T10:34:13.051Z,38.8
2024-02-19T10:39:13.656Z,38.8
2024-02-19T10:44:14.064Z,38.7
2024-02-19T10:49:14.566Z,38.7
2024-02-19T10:54:15.543Z,38.7
2024-02-19T10:59:15.971Z,38.7
2024-02-19T11:04:16.570Z,38.6
2024-02-19T11:09:17.329Z,38.6
2024-02-19T11:14:29.271Z,38.6
2024-02-19T11:19:29.904Z,38.6
2024-02-19T11:24:30.561Z,38.5
2024-02-19T11:29:36.131Z,38.5
2024-02-19T11:34:41.191Z,38.5
2024-02-19T11:39:41.907Z,38.4
2024-02-19T11:44:42.463Z,38.4
2024-02-19T11:49:43.102Z,38.4
2024-02-19T11:54:43.761Z,38.2
2024-02-19T11:59:44.243Z,38.2
2024-02-19T12:04:44.783Z,38.1
2024-02-19T12:09:45.283Z,38.1
2024-02-19T12:14:45.769Z,38.1
2024-02-19T12:19:46.426Z,38.1
2024-02-19T12:24:46.980Z,38
2024-02-19T12:29:47.428Z,38
2024-02-19T12:34:47.979Z,37.9
2024-02-19T12:39:48.534Z,37.9
2024-02-19T12:44:49.052Z,37.9
2024-02-19T12:49:49.520Z,37.9
2024-02-19T12:54:50.045Z,37.9
2024-02-19T12:59:50.536Z,37.8
2024-02-19T13:04:51.294Z,37.8
2024-02-19T13:09:51.820Z,37.7
2024-02-19T13:14:52.204Z,37.7
2024-02-19T13:19:52.769Z,37.7
2024-02-19T13:24:53.506Z,37.7
2024-02-19T13:29:53.912Z,37.7
2024-02-19T13:34:54.423Z,37.6
2024-02-19T13:39:55.068Z,37.6
2024-02-19T13:44:55.596Z,37.5
2024-02-19T13:49:56.136Z,37.4
2024-02-19T13:54:56.713Z,37.4
2024-02-19T13:59:57.159Z,37.4
2024-02-19T14:04:57.577Z,37.4
2024-02-19T14:09:58.147Z,37.3
2024-02-19T14:14:58.566Z,37.3
2024-02-19T14:19:59.003Z,37.2
2024-02-19T14:24:59.517Z,37.2
2024-02-19T14:29:59.994Z,37.2
2024-02-19T14:35:00.482Z,37.2
2024-02-19T14:40:01.008Z,37.1
2024-02-19T14:45:01.854Z,37.1
2024-02-19T14:50:02.389Z,37.1
2024-02-19T14:55:02.998Z,37.1
2024-02-19T15:00:03.507Z,37.1
2024-02-19T15:05:05.057Z,37
2024-02-19T15:10:05.566Z,37
2024-02-19T15:15:05.962Z,37
2024-02-19T15:20:06.462Z,36.9
2024-02-19T15:25:06.908Z,36.9
2024-02-19T15:30:07.401Z,36.9
2024-02-19T15:35:07.953Z,36.9
2024-02-19T15:40:08.580Z,36.9
2024-02-19T15:45:09.120Z,36.8
2024-02-19T15:50:09.678Z,36.7
2024-02-19T15:55:10.439Z,36.7
2024-02-19T16:00:10.993Z,36.7
2024-02-19T16:05:11.739Z,36.6
2024-02-19T16:10:12.296Z,36.6
2024-02-19T16:15:12.966Z,36.6
2024-02-19T16:20:13.559Z,36.6
2024-02-19T16:25:14.154Z,36.6
2024-02-19T16:30:14.650Z,36.6
2024-02-19T16:35:15.281Z,36.5
2024-02-19T16:40:15.903Z,36.5
2024-02-19T16:45:17.067Z,36.5
2024-02-19T16:50:17.495Z,36.4
2024-02-19T16:55:18.058Z,36.4
2024-02-19T17:00:18.580Z,36.4
2024-02-19T17:05:19.121Z,36.4
2024-02-19T17:10:19.726Z,36.4
2024-02-19T17:15:20.198Z,36.3
2024-02-19T17:20:20.648Z,36.3
2024-02-19T17:25:21.102Z,36.3
2024-02-19T17:30:21.666Z,36.2
2024-02-19T17:35:22.108Z,36.2
2024-02-19T17:40:22.658Z,36.2
2024-02-19T17:45:23.200Z,36.2
2024-02-19T17:50:23.602Z,36.2
2024-02-19T17:55:24.296Z,36.2
2024-02-19T18:00:24.801Z,36.1
2024-02-19T18:05:25.321Z,36.1
2024-02-19T18:10:26.183Z,36.1
2024-02-19T18:15:26.630Z,36.1
2024-02-19T18:20:27.225Z,36.1
2024-02-19T18:25:27.776Z,37.6
2024-02-19T18:30:28.662Z,39.7
2024-02-19T18:35:29.206Z,41.3
2024-02-19T18:40:29.910Z,41.9
2024-02-19T18:45:30.573Z,41.9
2024-02-19T18:50:31.093Z,41.9
2024-02-19T18:55:31.841Z,41.9
2024-02-19T19:00:32.490Z,41.9
2024-02-19T19:05:33.167Z,41.8
2024-02-19T19:10:33.899Z,42.1
2024-02-19T19:15:34.570Z,42.9
2024-02-19T19:20:35.160Z,43.1
2024-02-19T19:25:36.002Z,43.1
2024-02-19T19:30:36.775Z,43.1
2024-02-19T19:35:37.407Z,43.1
2024-02-19T19:40:38.092Z,43
2024-02-19T19:45:38.720Z,43
2024-02-19T19:50:39.304Z,42.9
2024-02-19T19:55:39.929Z,42.9
2024-02-19T20:00:40.561Z,42.9
2024-02-19T20:05:41.214Z,42.9
2024-02-19T20:10:41.976Z,42.8
2024-02-19T20:15:42.743Z,42.8
2024-02-19T20:20:43.299Z,42.7
2024-02-19T20:25:43.905Z,42.7
2024-02-19T20:30:44.472Z,42.7
2024-02-19T20:35:45.066Z,42.7
2024-02-19T20:40:45.657Z,42.6
2024-02-19T20:45:46.307Z,42.6
2024-02-19T20:50:47.041Z,42.6
2024-02-19T20:55:47.695Z,42.6
2024-02-19T21:00:48.368Z,42.5
2024-02-19T21:05:49.081Z,41.7
2024-02-19T21:10:49.631Z,41.4
2024-02-19T21:15:50.139Z,41.2
2024-02-19T21:20:50.699Z,41.2
2024-02-19T21:25:51.238Z,41.2
2024-02-19T21:30:51.713Z,41.2
2024-02-19T21:35:52.157Z,41.1
2024-02-19T21:40:52.790Z,41.1
2024-02-19T21:45:53.305Z,41.1
2024-02-19T21:50:53.909Z,41
2024-02-19T21:55:54.442Z,40.9
2024-02-19T22:00:55.274Z,40.9
2024-02-19T22:05:55.955Z,40.9
2024-02-19T22:10:56.549Z,40.8
2024-02-19T22:15:57.277Z,40.8
2024-02-19T22:20:57.984Z,40.7
2024-02-19T22:25:58.500Z,40.7
2024-02-19T22:30:59.058Z,40.6
2024-02-19T22:35:59.698Z,40.6
2024-02-19T22:41:00.214Z,40.5
2024-02-19T22:46:00.784Z,40.5
2024-02-19T22:51:01.493Z,40.4
2024-02-19T22:56:02.142Z,40.4
2024-02-19T23:01:02.805Z,40.3
2024-02-19T23:06:03.531Z,40.3
2024-02-19T23:11:04.224Z,40.2
2024-02-19T23:16:04.761Z,40.2
2024-02-19T23:21:05.488Z,40.1
2024-02-19T23:26:06.006Z,40.1
2024-02-19T23:31:06.537Z,40
2024-02-19T23:36:07.140Z,40
2024-02-19T23:41:07.687Z,39.9
2024-02-19T23:46:08.179Z,39.9
2024-02-19T23:51:08.698Z,39.9
2024-02-19T23:56:09.176Z,39.8
